createdAt,value
2019-03-16T02:06:16.331Z,55.49
2019-03-16T02:08:45.406Z,55.55
2019-03-16T02:11:14.491Z,55.59
2019-03-16T02:13:43.572Z,55.55
2019-03-16T02:16:12.593Z,55.52
2019-03-16T02:18:41.634Z,55.55
2019-03-16T02:21:10.654Z,55.63
2019-03-16T02:23:39.682Z,55.69
2019-03-16T02:26:08.750Z,55.70
2019-03-16T02:28:37.764Z,55.71
2019-03-16T02:31:06.890Z,55.76
2019-03-16T02:33:35.929Z,55.60
2019-03-16T02:36:04.943Z,55.55
2019-03-16T02:38:33.977Z,55.62
2019-03-16T02:41:02.992Z,55.54
2019-03-16T02:43:32.037Z,55.38
2019-03-16T02:46:01.048Z,55.45
2019-03-16T02:48:30.109Z,55.61
2019-03-16T02:50:59.105Z,55.74
2019-03-16T02:53:28.211Z,55.92
2019-03-16T02:55:57.235Z,56.16
2019-03-16T02:58:26.298Z,56.31
2019-03-16T03:00:55.289Z,56.46
2019-03-16T03:03:29.888Z,56.63
2019-03-16T03:05:55.083Z,56.83
2019-03-16T03:08:24.117Z,56.81
2019-03-16T03:10:53.224Z,57.03
2019-03-16T03:13:22.302Z,57.13
2019-03-16T03:15:51.340Z,57.24
2019-03-16T03:18:20.431Z,57.17
2019-03-16T03:20:49.476Z,57.31
2019-03-16T03:23:18.487Z,57.41
2019-03-16T03:25:47.515Z,57.48
2019-03-16T03:28:16.662Z,57.58
2019-03-16T03:30:45.654Z,57.69
2019-03-16T03:33:15.027Z,57.69
2019-03-16T03:35:44.173Z,57.81
2019-03-16T03:38:13.289Z,57.88
2019-03-16T03:40:42.511Z,57.97
2019-03-16T03:43:11.528Z,58.05
2019-03-16T03:45:40.588Z,58.00
2019-03-16T03:48:09.667Z,58.13
2019-03-16T03:50:38.746Z,58.24
2019-03-16T03:53:07.740Z,58.27
2019-03-16T03:55:36.818Z,58.27
2019-03-16T03:58:05.870Z,58.30
2019-03-16T04:00:35.010Z,58.39
2019-03-16T04:03:04.040Z,58.48
2019-03-16T04:05:33.088Z,58.59
2019-03-16T04:08:02.101Z,58.71
2019-03-16T04:10:31.411Z,58.77
2019-03-16T04:13:00.487Z,58.87
2019-03-16T04:15:29.551Z,58.94
2019-03-16T04:17:58.601Z,59.08
2019-03-16T04:20:27.669Z,59.17
2019-03-16T04:22:56.748Z,59.21
2019-03-16T04:25:25.818Z,59.32
2019-03-16T04:27:54.918Z,59.42
2019-03-16T04:30:23.977Z,59.58
2019-03-16T04:32:53.043Z,59.74
2019-03-16T04:35:22.141Z,59.86
2019-03-16T04:37:51.175Z,60.00
2019-03-16T04:40:20.271Z,60.02
2019-03-16T04:42:49.322Z,60.21
2019-03-16T04:45:18.462Z,60.23
2019-03-16T04:47:47.550Z,60.26
2019-03-16T04:50:16.666Z,60.34
2019-03-16T04:52:45.736Z,60.34
2019-03-16T04:55:14.826Z,60.45
2019-03-16T04:57:43.921Z,60.56
2019-03-16T05:00:13.023Z,60.58
2019-03-16T05:02:42.042Z,60.69
2019-03-16T05:05:11.166Z,60.73
2019-03-16T05:07:40.245Z,60.73
2019-03-16T05:10:09.360Z,60.75
2019-03-16T05:12:38.410Z,60.71
2019-03-16T05:15:07.611Z,60.78
2019-03-16T05:17:36.710Z,60.81
2019-03-16T05:20:06.341Z,60.84
2019-03-16T05:22:35.335Z,60.76
2019-03-16T05:25:04.452Z,60.70
2019-03-16T05:27:33.513Z,60.79
2019-03-16T05:30:02.574Z,60.74
2019-03-16T05:32:31.665Z,60.95
2019-03-16T05:35:03.217Z,61.04
2019-03-16T05:37:32.500Z,61.08
2019-03-16T05:40:01.583Z,61.19
2019-03-16T05:42:30.717Z,61.27
2019-03-16T05:44:59.763Z,61.54
2019-03-16T05:47:28.856Z,61.53
2019-03-16T05:49:57.948Z,61.59
2019-03-16T05:52:27.109Z,61.56
2019-03-16T05:54:56.247Z,61.51
2019-03-16T05:57:25.306Z,61.53
2019-03-16T05:59:54.348Z,61.55
2019-03-16T06:02:23.451Z,61.54
2019-03-16T06:04:52.594Z,61.53
2019-03-16T06:07:21.636Z,61.52
2019-03-16T06:09:50.701Z,61.53
2019-03-16T06:12:19.794Z,61.45
2019-03-16T06:14:48.859Z,61.36
2019-03-16T06:17:18.003Z,61.35
2019-03-16T06:19:47.103Z,61.42
2019-03-16T06:22:16.170Z,61.35
2019-03-16T06:24:45.201Z,61.41
2019-03-16T06:27:14.315Z,61.36
2019-03-16T06:29:43.431Z,61.36
2019-03-16T06:32:12.523Z,61.30
2019-03-16T06:34:41.603Z,61.22
2019-03-16T06:37:10.873Z,61.12
2019-03-16T06:39:39.954Z,61.10
2019-03-16T06:42:09.039Z,61.12
2019-03-16T06:44:38.087Z,61.07
2019-03-16T06:47:07.155Z,61.14
2019-03-16T06:49:36.240Z,61.12
2019-03-16T06:52:07.435Z,61.14
2019-03-16T06:54:36.131Z,61.18
2019-03-16T06:57:05.299Z,61.16
2019-03-16T06:59:34.397Z,61.17
2019-03-16T07:02:03.491Z,61.20
2019-03-16T07:04:32.573Z,61.12
2019-03-16T07:07:01.755Z,61.08
2019-03-16T07:09:30.860Z,61.10
2019-03-16T07:11:59.898Z,61.12
2019-03-16T07:14:29.038Z,61.18
2019-03-16T07:17:02.387Z,61.36
2019-03-16T07:19:29.023Z,61.57
2019-03-16T07:21:58.030Z,61.80
2019-03-16T07:24:27.125Z,61.90
2019-03-16T07:26:56.236Z,62.37
2019-03-16T07:29:25.311Z,62.50
2019-03-16T07:31:54.363Z,62.79
2019-03-16T07:34:23.478Z,63.12
2019-03-16T07:36:52.604Z,63.34
2019-03-16T07:39:21.707Z,63.57
2019-03-16T07:41:50.814Z,63.57
2019-03-16T07:44:20.029Z,63.68
2019-03-16T07:46:49.100Z,63.76
2019-03-16T07:49:18.247Z,63.87
2019-03-16T07:51:47.539Z,63.92
2019-03-16T07:54:16.970Z,63.88
2019-03-16T07:56:46.242Z,63.79
2019-03-16T07:59:15.466Z,63.71
2019-03-16T08:01:44.606Z,63.65
2019-03-16T08:04:13.684Z,63.49
2019-03-16T08:06:42.999Z,63.51
2019-03-16T08:09:12.180Z,63.41
2019-03-16T08:11:41.263Z,63.39
2019-03-16T08:14:10.300Z,63.07
2019-03-16T08:16:39.454Z,62.84
2019-03-16T08:19:08.499Z,62.52
2019-03-16T08:21:37.537Z,62.20
2019-03-16T08:24:06.556Z,62.08
2019-03-16T08:26:35.606Z,61.89
2019-03-16T08:29:04.696Z,61.66
2019-03-16T08:31:33.714Z,61.62
2019-03-16T08:34:02.871Z,61.44
2019-03-16T08:36:32.010Z,61.39
2019-03-16T08:39:01.054Z,61.34
2019-03-16T08:41:30.131Z,61.19
2019-03-16T08:43:59.225Z,61.36
2019-03-16T08:46:28.318Z,61.26
2019-03-16T08:48:57.391Z,61.32
2019-03-16T08:51:26.483Z,61.48
2019-03-16T08:53:55.532Z,61.48
2019-03-16T08:56:24.707Z,61.50
2019-03-16T08:58:53.674Z,61.07
2019-03-16T09:01:22.714Z,60.81
2019-03-16T09:03:51.887Z,60.80
2019-03-16T09:06:21.021Z,60.70
2019-03-16T09:08:50.104Z,60.70
2019-03-16T09:11:19.238Z,60.74
2019-03-16T09:13:48.264Z,60.67
2019-03-16T09:16:17.542Z,60.57
2019-03-16T09:18:47.792Z,60.66
2019-03-16T09:21:16.961Z,60.82
2019-03-16T09:23:46.063Z,60.55
2019-03-16T09:26:15.129Z,60.70
2019-03-16T09:28:44.238Z,60.53
2019-03-16T09:31:13.376Z,60.16
2019-03-16T09:33:42.406Z,60.00
2019-03-16T09:36:11.488Z,60.06
2019-03-16T09:38:40.599Z,60.05
2019-03-16T09:41:09.677Z,59.97
2019-03-16T09:43:38.743Z,59.78
2019-03-16T09:46:07.869Z,59.74
2019-03-16T09:48:37.050Z,59.82
2019-03-16T09:51:06.277Z,59.79
2019-03-16T09:53:35.435Z,59.29
2019-03-16T09:56:04.454Z,58.92
2019-03-16T09:58:33.487Z,58.78
2019-03-16T10:01:02.609Z,58.44
2019-03-16T10:03:31.713Z,58.43
2019-03-16T10:06:00.814Z,58.30
2019-03-16T10:08:29.889Z,57.58
2019-03-16T10:10:59.132Z,57.14
2019-03-16T10:13:28.194Z,56.78
2019-03-16T10:15:57.234Z,56.16
2019-03-16T10:18:26.287Z,56.24
2019-03-16T10:20:55.390Z,55.85
2019-03-16T10:23:24.419Z,55.66
2019-03-16T10:25:53.561Z,55.46
2019-03-16T10:28:22.594Z,55.11
2019-03-16T10:30:51.719Z,55.20
2019-03-16T10:33:20.772Z,55.18
2019-03-16T10:35:49.862Z,55.07
2019-03-16T10:38:18.852Z,54.73
2019-03-16T10:40:47.955Z,54.62
2019-03-16T10:43:17.067Z,54.42
2019-03-16T10:45:46.136Z,54.31
2019-03-16T10:48:15.186Z,53.70
2019-03-16T10:50:44.295Z,53.42
2019-03-16T10:53:13.351Z,52.80
2019-03-16T10:55:42.533Z,52.70
2019-03-16T10:58:11.657Z,53.08
2019-03-16T11:00:40.881Z,53.14
2019-03-16T11:03:10.186Z,52.61
2019-03-16T11:05:39.280Z,51.65
2019-03-16T11:08:08.363Z,51.65
2019-03-16T11:10:37.631Z,51.50
2019-03-16T11:13:06.801Z,51.37
2019-03-16T11:15:35.896Z,51.41
2019-03-16T11:18:05.023Z,51.89
2019-03-16T11:20:34.171Z,52.18
2019-03-16T11:23:03.629Z,52.34
2019-03-16T11:25:35.559Z,52.62
2019-03-16T11:28:04.652Z,52.70
2019-03-16T11:30:33.706Z,52.43
2019-03-16T11:33:02.801Z,51.79
2019-03-16T11:35:31.880Z,51.58
2019-03-16T11:38:01.093Z,51.36
2019-03-16T11:40:30.286Z,51.28
2019-03-16T11:42:59.447Z,51.11
2019-03-16T11:45:28.713Z,51.22
2019-03-16T11:47:57.804Z,50.78
2019-03-16T11:50:26.909Z,50.52
2019-03-16T11:52:55.946Z,50.59
2019-03-16T11:55:35.870Z,50.56
2019-03-16T11:58:07.932Z,50.68
2019-03-16T12:00:37.051Z,50.73
2019-03-16T12:03:06.205Z,50.86
2019-03-16T12:05:35.248Z,50.70
2019-03-16T12:08:04.432Z,50.81
2019-03-16T12:10:33.563Z,50.86
2019-03-16T12:13:02.699Z,50.92
2019-03-16T12:15:31.824Z,50.78
2019-03-16T12:18:00.941Z,50.87
2019-03-16T12:20:30.055Z,51.04
2019-03-16T12:22:59.173Z,50.71
2019-03-16T12:25:28.525Z,50.53
2019-03-16T12:27:57.640Z,50.43
2019-03-16T12:30:26.704Z,50.27
2019-03-16T12:32:55.829Z,50.19
2019-03-16T12:35:24.916Z,50.27
2019-03-16T12:37:54.112Z,50.07
2019-03-16T12:40:23.261Z,50.17
2019-03-16T12:42:52.365Z,50.39
2019-03-16T12:45:21.438Z,50.43
2019-03-16T12:47:50.536Z,50.62
2019-03-16T12:50:19.583Z,50.90
2019-03-16T12:52:48.780Z,50.78
2019-03-16T12:55:17.945Z,50.68
2019-03-16T12:57:48.171Z,50.63
2019-03-16T13:00:17.527Z,50.29
2019-03-16T13:02:46.637Z,50.41
2019-03-16T13:05:15.937Z,50.25
2019-03-16T13:07:45.106Z,50.22
2019-03-16T13:10:14.741Z,50.25
2019-03-16T13:12:44.198Z,50.41
2019-03-16T13:15:13.320Z,50.61
2019-03-16T13:17:42.530Z,50.70
2019-03-16T13:20:12.031Z,50.41
2019-03-16T13:22:42.025Z,49.72
2019-03-16T13:25:11.343Z,49.87
2019-03-16T13:27:40.343Z,49.87
2019-03-16T13:30:10.642Z,49.88
2019-03-16T13:32:39.937Z,49.88
2019-03-16T13:35:09.110Z,49.70
2019-03-16T13:37:38.202Z,49.94
2019-03-16T13:40:08.309Z,49.95
2019-03-16T13:42:37.497Z,49.70
2019-03-16T13:45:06.904Z,50.01
2019-03-16T13:47:35.988Z,49.88
2019-03-16T13:51:11.630Z,50.05
2019-03-16T13:53:12.169Z,50.21
2019-03-16T13:55:41.634Z,50.25
2019-03-16T13:58:11.001Z,50.42
2019-03-16T14:00:40.146Z,50.31
2019-03-16T14:03:09.389Z,50.49
2019-03-16T14:05:38.485Z,50.51
2019-03-16T14:08:07.634Z,50.64
2019-03-16T14:10:36.939Z,50.97
2019-03-16T14:13:06.035Z,50.88
2019-03-16T14:15:35.305Z,50.98
2019-03-16T14:18:04.521Z,50.99
2019-03-16T14:20:33.839Z,50.88
2019-03-16T14:23:03.280Z,50.72
2019-03-16T14:25:32.901Z,51.01
2019-03-16T14:28:02.173Z,51.05
2019-03-16T14:30:40.953Z,50.91
2019-03-16T14:33:02.466Z,50.97
2019-03-16T14:35:31.688Z,51.02
2019-03-16T14:38:00.805Z,50.91
2019-03-16T14:40:29.971Z,50.75
2019-03-16T14:42:59.218Z,50.88
2019-03-16T14:45:28.714Z,50.84
2019-03-16T14:47:57.741Z,50.66
2019-03-16T14:50:26.944Z,50.78
2019-03-16T14:52:55.998Z,50.62
2019-03-16T14:55:25.054Z,50.25
2019-03-16T14:57:54.151Z,50.13
2019-03-16T15:00:23.155Z,50.13
2019-03-16T15:02:52.226Z,50.00
2019-03-16T15:05:21.269Z,49.47
2019-03-16T15:07:50.539Z,49.37
2019-03-16T15:10:19.668Z,49.40
2019-03-16T15:12:48.842Z,49.00
2019-03-16T15:15:17.914Z,48.98
2019-03-16T15:17:47.113Z,48.97
2019-03-16T15:20:16.192Z,49.13
2019-03-16T15:22:45.307Z,48.91
2019-03-16T15:25:14.475Z,48.88
2019-03-16T15:27:43.583Z,47.80
2019-03-16T15:30:13.885Z,47.79
2019-03-16T15:32:43.070Z,47.21
2019-03-16T15:35:12.245Z,47.08
2019-03-16T15:37:42.572Z,46.90
2019-03-16T15:40:11.713Z,46.51
2019-03-16T15:42:40.831Z,46.54
2019-03-16T15:45:12.489Z,46.79
2019-03-16T15:47:41.602Z,46.87
2019-03-16T15:50:10.725Z,46.98
2019-03-16T15:52:39.774Z,47.21
2019-03-16T15:55:08.946Z,47.17
2019-03-16T15:57:38.010Z,47.11
2019-03-16T16:00:07.715Z,47.30
2019-03-16T16:02:36.752Z,47.31
2019-03-16T16:05:06.321Z,47.22
2019-03-16T16:07:35.557Z,47.03
2019-03-16T16:10:05.201Z,47.13
2019-03-16T16:12:34.340Z,47.26
2019-03-16T16:15:03.588Z,47.39
2019-03-16T16:17:32.736Z,47.74
2019-03-16T16:20:01.912Z,47.88
2019-03-16T16:22:30.987Z,47.83
2019-03-16T16:25:00.481Z,47.88
2019-03-16T16:27:29.595Z,48.04
2019-03-16T16:29:58.611Z,47.98
2019-03-16T16:32:28.824Z,48.13
2019-03-16T16:34:57.972Z,48.02
2019-03-16T16:37:27.288Z,48.12
2019-03-16T16:39:58.427Z,47.97
2019-03-16T16:42:41.072Z,48.11
2019-03-16T16:45:10.580Z,48.11
2019-03-16T16:47:39.630Z,48.10
2019-03-16T16:50:10.633Z,47.98
2019-03-16T16:52:39.673Z,48.25
2019-03-16T16:55:08.811Z,48.10
2019-03-16T16:57:37.938Z,48.26
2019-03-16T17:00:09.778Z,47.70
2019-03-16T17:02:38.832Z,47.95
2019-03-16T17:05:08.312Z,48.03
2019-03-16T17:07:37.360Z,48.25
2019-03-16T17:10:07.004Z,48.38
2019-03-16T17:12:36.089Z,48.29
2019-03-16T17:15:05.640Z,48.07
2019-03-16T17:17:35.718Z,48.16
2019-03-16T17:20:05.065Z,48.34
2019-03-16T17:22:37.219Z,48.07
2019-03-16T17:25:05.429Z,48.06
2019-03-16T17:27:34.482Z,47.80
2019-03-16T17:30:03.622Z,47.92
2019-03-16T17:32:32.762Z,47.95
2019-03-16T17:35:02.664Z,47.87
2019-03-16T17:37:31.912Z,47.82
2019-03-16T17:40:01.827Z,47.92
2019-03-16T17:42:30.953Z,47.82
2019-03-16T17:45:00.008Z,47.92
2019-03-16T17:47:29.073Z,47.78
2019-03-16T17:49:58.190Z,47.72
2019-03-16T17:52:27.312Z,47.71
2019-03-16T17:54:56.517Z,47.77
2019-03-16T17:57:27.814Z,47.56
2019-03-16T17:59:56.897Z,47.65
2019-03-16T18:02:26.017Z,47.66
2019-03-16T18:04:55.101Z,47.46
2019-03-16T18:07:24.281Z,47.61
2019-03-16T18:09:53.394Z,47.77
2019-03-16T18:12:22.620Z,47.82
2019-03-16T18:14:51.696Z,47.68
2019-03-16T18:17:20.765Z,47.97
2019-03-16T18:19:50.011Z,47.93
2019-03-16T18:22:19.154Z,47.71
2019-03-16T18:24:48.215Z,47.53
2019-03-16T18:27:17.303Z,47.60
2019-03-16T18:29:46.376Z,47.41
2019-03-16T18:32:15.633Z,47.51
2019-03-16T18:34:44.804Z,47.39
2019-03-16T18:37:14.025Z,47.56
2019-03-16T18:39:43.244Z,47.40
2019-03-16T18:42:12.272Z,47.41
2019-03-16T18:44:41.654Z,47.60
2019-03-16T18:47:10.767Z,47.52
2019-03-16T18:49:39.858Z,47.62
2019-03-16T18:52:09.864Z,47.55
2019-03-16T18:54:39.010Z,47.54
2019-03-16T18:57:08.382Z,47.46
2019-03-16T18:59:37.473Z,47.39
2019-03-16T19:02:06.656Z,47.41
2019-03-16T19:04:35.703Z,47.45
2019-03-16T19:07:04.821Z,47.36
2019-03-16T19:09:34.069Z,47.18
2019-03-16T19:12:03.317Z,47.42
2019-03-16T19:14:32.559Z,47.52
2019-03-16T19:17:01.678Z,47.54
2019-03-16T19:19:30.779Z,47.51
2019-03-16T19:21:59.861Z,47.66
2019-03-16T19:24:28.988Z,47.63
2019-03-16T19:26:58.082Z,47.68
2019-03-16T19:29:27.167Z,47.74
2019-03-16T19:31:56.317Z,47.70
2019-03-16T19:34:25.369Z,47.71
2019-03-16T19:36:54.491Z,47.54
2019-03-16T19:39:25.080Z,47.62
2019-03-16T19:41:54.563Z,47.72
2019-03-16T19:44:23.763Z,47.86
2019-03-16T19:46:52.889Z,47.85
2019-03-16T19:49:22.058Z,47.88
2019-03-16T19:51:51.127Z,48.07
2019-03-16T19:54:20.285Z,48.18
2019-03-16T19:56:49.404Z,48.14
2019-03-16T19:59:18.442Z,48.30
2019-03-16T20:01:47.486Z,48.42
2019-03-16T20:04:16.541Z,48.49
2019-03-16T20:06:45.602Z,48.39
2019-03-16T20:09:15.460Z,48.51
2019-03-16T20:11:44.557Z,48.62
2019-03-16T20:14:13.636Z,48.63
2019-03-16T20:16:42.723Z,48.78
2019-03-16T20:19:11.784Z,48.68
2019-03-16T20:21:40.828Z,48.72
2019-03-16T20:24:09.897Z,48.68
2019-03-16T20:26:38.997Z,48.85
2019-03-16T20:29:08.175Z,48.75
2019-03-16T20:31:46.352Z,48.85
2019-03-16T20:34:08.031Z,48.95
2019-03-16T20:36:37.068Z,48.90
2019-03-16T20:39:07.902Z,48.83
2019-03-16T20:41:36.960Z,48.90
2019-03-16T20:44:06.314Z,48.96
2019-03-16T20:46:35.500Z,48.96
2019-03-16T20:49:04.492Z,49.16
2019-03-16T20:51:33.575Z,49.04
2019-03-16T20:54:02.635Z,49.12
2019-03-16T20:56:31.653Z,48.98
2019-03-16T20:59:00.719Z,49.07
2019-03-16T21:01:29.866Z,49.04
2019-03-16T21:03:58.986Z,49.07
2019-03-16T21:06:28.069Z,49.15
2019-03-16T21:09:03.095Z,49.20
2019-03-16T21:11:30.833Z,49.24
2019-03-16T21:14:00.063Z,49.33
2019-03-16T21:16:29.107Z,49.55
2019-03-16T21:19:01.208Z,49.51
2019-03-16T21:21:30.341Z,49.53
2019-03-16T21:23:59.426Z,49.41
2019-03-16T21:26:28.562Z,49.40
2019-03-16T21:28:57.621Z,49.41
2019-03-16T21:31:26.768Z,49.36
2019-03-16T21:33:57.835Z,49.41
2019-03-16T21:36:26.864Z,49.32
2019-03-16T21:38:55.916Z,49.44
2019-03-16T21:41:24.921Z,49.47
2019-03-16T21:43:53.978Z,49.54
2019-03-16T21:46:23.222Z,49.52
2019-03-16T21:48:52.736Z,49.75
2019-03-16T21:51:21.808Z,49.67
2019-03-16T21:53:50.872Z,49.63
2019-03-16T21:56:19.954Z,49.62
2019-03-16T21:58:49.026Z,49.49
2019-03-16T22:01:18.105Z,49.48
2019-03-16T22:03:47.155Z,49.46
2019-03-16T22:06:16.343Z,49.63
2019-03-16T22:08:45.467Z,49.65
2019-03-16T22:11:14.537Z,49.53
2019-03-16T22:13:43.651Z,49.69
2019-03-16T22:16:12.705Z,49.65
2019-03-16T22:18:41.787Z,49.65
2019-03-16T22:21:10.803Z,49.73
2019-03-16T22:23:39.791Z,49.74
2019-03-16T22:26:08.878Z,49.86
2019-03-16T22:28:37.844Z,49.74
2019-03-16T22:31:06.894Z,49.71
2019-03-16T22:33:35.921Z,49.82
2019-03-16T22:36:04.977Z,49.75
2019-03-16T22:38:33.974Z,49.83
2019-03-16T22:41:03.031Z,49.81
2019-03-16T22:43:32.061Z,49.76
2019-03-16T22:46:01.212Z,49.69
2019-03-16T22:48:30.243Z,49.85
2019-03-16T22:50:59.278Z,49.70
2019-03-16T22:53:28.298Z,49.83
2019-03-16T22:55:57.331Z,49.76
2019-03-16T22:58:26.365Z,49.75
2019-03-16T23:00:55.570Z,49.70
2019-03-16T23:03:24.535Z,49.69
2019-03-16T23:05:53.627Z,49.76
2019-03-16T23:08:22.755Z,49.74
2019-03-16T23:10:51.816Z,49.79
2019-03-16T23:13:20.819Z,49.75
2019-03-16T23:15:49.900Z,49.72
2019-03-16T23:18:19.807Z,49.77
2019-03-16T23:20:48.938Z,49.55
2019-03-16T23:23:18.021Z,49.76
2019-03-16T23:25:47.232Z,49.59
2019-03-16T23:28:16.258Z,49.83
2019-03-16T23:30:45.350Z,49.68
2019-03-16T23:33:14.490Z,49.51
2019-03-16T23:35:43.596Z,49.39
2019-03-16T23:38:12.709Z,49.54
2019-03-16T23:40:41.784Z,49.43
2019-03-16T23:43:10.837Z,49.44
2019-03-16T23:45:39.910Z,49.45
2019-03-16T23:48:10.009Z,49.46
2019-03-16T23:50:39.075Z,49.38
2019-03-16T23:53:08.318Z,49.24
2019-03-16T23:55:37.334Z,49.33
2019-03-16T23:58:06.328Z,49.27
